Flight Track Log - Related Links

Times and Time Zones

All times are in EDT time to prevent confusion due to time zone crossing. See the N724AG flight status page for this flight to view local times or setup timezone preferences in your user account.

Time Position Orientation Groundspeed Altitude Reporting Facility
EDT Latitude Longitude Course Direction KTS MPH feet Rate Location/Type
Mon 07:34:54 PM 40.8167 -74.2000 37° Northeast 231 266 3,400  Level New York TRACON
Mon 07:35:54 PM 40.8500 -74.2667 303° West 295 339 5,800 1,300 Climbing New York TRACON
Mon 07:36:54 PM 40.9333 -74.2333 17° North 303 349 6,000 146 Climbing New York TRACON
Mon 07:38:38 PM 41.0553 -74.1769 19° North 302 348 6,200 1,244 Climbing Boston Center
Mon 07:39:38 PM 41.1394 -74.1214 26° Northeast 297 342 9,400 2,400 Climbing Boston Center
Mon 07:40:00 PM 41.2801 -73.5532 37° Northeast  Level FlightAware Approximate
Mon 07:40:38 PM 41.1867 -74.0397 52° Northeast 306 352 11,000  Level Boston Center
Mon 07:41:38 PM 41.2069 -73.9161 78° East 299 344 11,000  Level Boston Center
Mon 07:42:38 PM 41.2314 -73.8064 73° East 320 368 11,000 850 Level Boston Center
Mon 07:43:38 PM 41.2622 -73.6578 75° East 362 417 12,700 2,050 Climbing Boston Center
Mon 07:44:38 PM 41.2928 -73.5231 73° East 375 432 15,100 1,800 Climbing Boston Center
Mon 07:45:38 PM 41.3253 -73.3800 73° East 381 438 16,300 1,500 Climbing Boston Center
Mon 07:46:38 PM 41.3597 -73.2394 72° East 397 457 18,100 1,850 Climbing Boston Center
Mon 07:47:38 PM 41.4003 -73.0986 69° East 403 464 20,000 1,950 Climbing Boston Center
Mon 07:48:38 PM 41.4614 -72.9664 58° Northeast 408 470 22,000 2,000 Climbing Boston Center
Mon 07:49:38 PM 41.5222 -72.8228 60° Northeast 425 489 24,000 1,950 Climbing Boston Center
Mon 07:50:38 PM 41.5625 -72.6703 71° East 425 489 25,900 1,900 Climbing Boston Center
Mon 07:51:38 PM 41.5856 -72.5039 79° East 444 511 27,800 1,750 Climbing Boston Center
Mon 07:52:38 PM 41.6064 -72.3319 81° East 456 525 29,400 1,200 Climbing Boston Center
Mon 07:53:38 PM 41.6311 -72.1486 80° East 476 548 30,200 1,250 Climbing Boston Center
Mon 07:54:38 PM 41.6575 -71.9594 79° East 502 578 31,900 1,700 Climbing Boston Center
Mon 07:55:38 PM 41.6814 -71.7703 80° East 508 585 33,600 1,700 Climbing Boston Center
Mon 07:56:38 PM 41.7053 -71.5808 80° East 513 590 35,300 1,500 Climbing Boston Center
Mon 07:57:38 PM 41.7331 -71.4192 77° East 508 585 36,600 1,400 Climbing Boston Center
Mon 07:58:38 PM 41.7542 -71.2267 82° East 508 585 38,100 1,400 Climbing Boston Center
Mon 07:59:38 PM 41.7769 -71.0342 81° East 508 585 39,400 1,300 Climbing Boston Center
Mon 08:00:38 PM 41.7989 -70.8222 82° East 517 595 40,700 800 Climbing Boston Center
Mon 08:01:38 PM 41.8211 -70.6294 81° East 524 603 41,000 150 Climbing Boston Center
Mon 08:02:38 PM 41.8469 -70.4336 80° East 524 603 41,000  Level Boston Center
Mon 08:03:38 PM 41.8683 -70.2433 81° East 524 603 41,000  Level Boston Center
Mon 08:04:50 PM 41.8908 -70.0108 83° East 522 601 41,000  Level Boston Center
Mon 08:05:50 PM 41.9156 -69.8147 80° East 528 608 41,000  Level Boston Center
Mon 08:06:50 PM 41.9300 -69.6356 84° East 528 608 41,000  Level Boston Center
Mon 08:07:50 PM 41.9500 -69.4392 82° East 528 608 41,000  Level Boston Center
Mon 08:09:02 PM 41.9761 -69.2478 80° East 522 601 41,000  Level Boston Center
Mon 08:10:02 PM 42.0042 -69.0006 81° East 518 596 41,000  Level Boston Center
Mon 08:11:02 PM 42.0253 -68.8036 82° East 518 596 41,000  Level Boston Center
Mon 08:12:02 PM 42.0458 -68.6094 82° East 523 602 41,000  Level Boston Center
Mon 08:13:02 PM 42.0661 -68.4125 82° East 529 609 41,000  Level Boston Center
Mon 08:14:02 PM 42.0839 -68.2125 83° East 523 602 41,000  Level Boston Center
Mon 08:15:02 PM 42.1033 -68.0125 82° East 528 608 41,000  Level Boston Center
Mon 08:16:02 PM 42.1231 -67.8264 82° East 523 602 41,000  Level Boston Center
Mon 08:17:02 PM 42.1419 -67.6317 82° East 523 602 41,000  Level Boston Center
Mon 08:18:02 PM 42.1581 -67.4258 84° East 534 615 41,000  Level Boston Center
Mon 08:19:02 PM 42.1761 -67.2225 83° East 543 625 41,000  Level Boston Center
Mon 08:20:14 PM 42.1981 -67.0244 81° East 543 625 41,000  Level Boston Center
Mon 08:21:11 PM 42.2333 -66.8167 77° East 530 610 41,000  Level Moncton Center
Mon 08:22:11 PM 42.3000 -66.6000 67° East 530 610 41,000  Level Moncton Center
Mon 08:23:11 PM 42.3333 -66.4333 75° East 530 610 41,000  Level Moncton Center
Mon 08:24:11 PM 42.3833 -66.2333 71° East 540 621 41,000  Level Moncton Center
Mon 08:25:11 PM 42.4333 -66.0333 71° East 540 621 41,000  Level Moncton Center
Mon 08:26:11 PM 42.4667 -65.8500 76° East 540 621 41,000  Level Moncton Center
Mon 08:27:11 PM 42.5333 -65.6500 66° East 540 621 41,000  Level Moncton Center
Mon 08:28:11 PM 42.5833 -65.4667 70° East 540 621 41,000  Level Moncton Center
Mon 08:29:11 PM 42.6333 -65.2667 71° East 540 621 41,000  Level Moncton Center
Mon 08:30:11 PM 42.6833 -65.0833 70° East 550 633 41,000  Level Moncton Center
Mon 08:31:11 PM 42.7333 -64.8667 72° East 550 633 41,000  Level Moncton Center
Mon 08:32:11 PM 42.7667 -64.6667 77° East 550 633 41,000  Level Moncton Center
Mon 08:33:11 PM 42.8167 -64.4667 71° East 550 633 41,000  Level Moncton Center
Mon 08:34:11 PM 42.8667 -64.2833 70° East 540 621 41,000  Level Moncton Center
Mon 08:35:11 PM 42.9167 -64.0833 71° East 550 633 41,000  Level Moncton Center
Mon 08:36:11 PM 42.9667 -63.9000 70° East 550 633 41,000  Level Moncton Center
Mon 08:37:11 PM 43.0000 -63.6833 78° East 540 621 41,000  Level Moncton Center
Mon 08:38:11 PM 43.0500 -63.5000 69° East 540 621 41,000  Level Moncton Center
Mon 08:39:11 PM 43.1000 -63.3000 71° East 550 633 41,000  Level Moncton Center
Mon 08:40:11 PM 43.1500 -63.1000 71° East 540 621 41,000  Level Moncton Center
Mon 08:41:11 PM 43.1833 -62.8833 78° East 540 621 41,000  Level Moncton Center
Mon 08:42:11 PM 43.2167 -62.7000 76° East 540 621 41,000  Level Moncton Center
Mon 08:43:56 PM 43.3000 -62.3333 73° East 550 633 41,000  Level Gander Center
Mon 08:44:11 PM 43.3167 -62.3000 55° Northeast 540 621 41,000  Level Moncton Center
Mon 08:44:40 PM 43.3333 -62.2000 77° East 540 621 41,000  Level Gander Center
Mon 08:45:11 PM 43.3667 -62.1167 61° Northeast 540 621 41,000  Level Moncton Center
Mon 08:46:11 PM 43.4000 -61.9167 77° East 540 621 41,000  Level Moncton Center
Mon 08:47:11 PM 43.4333 -61.7000 78° East 540 621 41,000  Level Moncton Center
Mon 08:48:11 PM 43.4833 -61.5000 71° East 540 621 41,000  Level Moncton Center
Mon 08:49:11 PM 43.5333 -61.3167 69° East 540 621 41,000  Level Moncton Center
Mon 08:49:40 PM 43.5500 -61.2167 77° East 540 621 41,000  Level Gander Center
Mon 08:50:11 PM 43.5667 -61.1000 79° East 550 633 41,000  Level Moncton Center
Mon 08:51:11 PM 43.6167 -60.9167 69° East 550 633 41,000  Level Moncton Center
Mon 08:51:40 PM 43.6333 -60.8000 79° East 550 633 41,000  Level Gander Center
Mon 08:52:40 PM 43.6833 -60.6000 71° East 540 621 41,000  Level Gander Center
Mon 08:53:40 PM 43.7000 -60.4000 83° East 550 633 41,000  Level Gander Center
Mon 08:54:40 PM 43.7500 -60.1833 72° East 550 633 41,000  Level Gander Center
Mon 08:55:11 PM 43.7667 -60.1000 74° East 550 633 41,000  Level Moncton Center
Mon 08:56:11 PM 43.8167 -59.8833 72° East 560 644 41,000  Level Moncton Center
Mon 08:57:11 PM 43.8500 -59.6667 78° East 550 633 41,000 67 Level Moncton Center
Mon 08:57:40 PM 43.8667 -59.5667 77° East 550 633 41,100 300 Climbing Gander Center
Mon 08:58:11 PM 43.8833 -59.4833 74° East 550 633 41,300 400 Climbing Moncton Center
Mon 08:58:40 PM 43.9167 -59.3833 65° Northeast 540 621 41,500 600 Climbing Gander Center
Mon 08:59:11 PM 43.9167 -59.2667 90° East 540 621 41,900 791 Climbing Moncton Center
Mon 09:00:11 PM 43.9500 -59.0833 76° East 530 610 42,700 742 Climbing Moncton Center
Mon 09:00:40 PM 43.9667 -58.9833 77° East 530 610 43,000 202 Climbing Gander Center
Mon 09:01:40 PM 44.0167 -58.7833 71° East 530 610 43,000  Level Gander Center
Mon 09:02:11 PM 44.0333 -58.6667 79° East 530 610 43,000  Level Moncton Center
Mon 09:02:40 PM 44.0500 -58.6000 71° East 530 610 43,000  Level Gander Center
Mon 09:03:40 PM 44.0833 -58.3833 78° East 540 621 43,000  Level Gander Center
Mon 09:04:40 PM 44.1167 -58.1667 78° East 540 621 43,000  Level Gander Center
Mon 09:05:11 PM 44.1333 -58.0500 79° East 530 610 43,000  Level Moncton Center
Mon 09:05:40 PM 44.1667 -57.9667 61° Northeast 540 621 43,000  Level Gander Center
Mon 09:06:40 PM 44.1833 -57.7667 83° East 540 621 43,000  Level Gander Center
Mon 09:07:40 PM 44.2333 -57.5667 71° East 540 621 43,000  Level Gander Center
Mon 09:08:40 PM 44.2500 -57.3667 83° East 540 621 43,000  Level Gander Center
Mon 09:09:11 PM 44.2667 -57.2667 77° East 540 621 43,000  Level Moncton Center
Mon 09:10:11 PM 44.3167 -57.0500 72° East 540 621 43,000  Level Moncton Center
Mon 09:10:40 PM 44.3167 -56.9500 90° East 540 621 43,000  Level Gander Center
Mon 09:11:11 PM 44.3500 -56.8667 61° Northeast 540 621 43,000  Level Moncton Center
Mon 09:12:11 PM 44.3833 -56.6500 78° East 550 633 43,000  Level Moncton Center
Mon 09:12:40 PM 44.3833 -56.5500 90° East 540 621 43,000  Level Gander Center
Mon 09:13:40 PM 44.4333 -56.3333 72° East 540 621 43,000  Level Gander Center
Mon 09:14:11 PM 44.4500 -56.2333 77° East 540 621 43,000  Level Moncton Center
Mon 09:15:11 PM 44.4667 -56.0167 84° East 530 610 43,000  Level Moncton Center
Mon 09:16:11 PM 44.4833 -55.8333 83° East 530 610 43,000  Level Moncton Center
Mon 09:16:40 PM 44.5167 -55.7167 68° East 540 621 43,000  Level Gander Center
Mon 09:17:11 PM 44.5000 -55.6167 103° East 540 621 43,000  Level Moncton Center
Mon 09:18:11 PM 44.5333 -55.4000 78° East 540 621 43,000  Level Moncton Center
Mon 09:18:40 PM 44.5500 -55.3167 74° East 540 621 43,000  Level Gander Center
Mon 09:19:40 PM 44.5667 -55.1000 84° East 540 621 43,000  Level Gander Center
Mon 09:20:11 PM 44.5833 -55.0000 77° East 540 621 43,000  Level Moncton Center
Mon 09:21:11 PM 44.6000 -54.8000 83° East 540 621 43,000  Level Moncton Center
Mon 09:21:40 PM 44.6000 -54.6833 90° East 540 621 43,000  Level Gander Center
Mon 09:22:11 PM 44.6167 -54.5833 77° East 550 633 43,000  Level Moncton Center
Mon 09:22:56 PM 44.6500 -54.4167 74° East 540 621 43,000  Level Gander Center
Mon 09:23:11 PM 44.6333 -54.3667 115° Southeast 550 633 43,000  Level Moncton Center
Mon 09:24:11 PM 44.6667 -54.1833 76° East 550 633 43,000  Level Moncton Center
Mon 09:24:40 PM 44.6667 -54.0667 90° East 540 621 43,000  Level Gander Center
Mon 09:25:40 PM 44.6833 -53.8500 84° East 540 621 43,000  Level Gander Center
Mon 09:25:56 PM 44.7000 -53.8000 65° Northeast 550 633 43,000  Level Gander Center
Mon 09:26:56 PM 44.7167 -53.5833 84° East 550 633 43,000  Level Gander Center
Mon 09:27:11 PM 44.7167 -53.5333 90° East 540 621 43,000  Level Moncton Center
Mon 09:28:11 PM 44.7333 -53.3333 83° East 540 621 43,000  Level Moncton Center
Mon 09:28:40 PM 44.7500 -53.2333 77° East 550 633 43,000  Level Gander Center
Mon 09:29:11 PM 44.7667 -53.1000 80° East 540 621 43,000  Level Moncton Center
Mon 09:30:11 PM 44.7833 -52.9000 83° East 540 621 43,000  Level Moncton Center
Mon 09:30:56 PM 44.7833 -52.7500 90° East 540 621 43,000  Level Gander Center
Mon 09:31:40 PM 44.8000 -52.5833 82° East 550 633 43,000  Level Gander Center
Mon 09:32:40 PM 44.8167 -52.3667 84° East 540 621 43,000  Level Gander Center
Mon 09:32:56 PM 44.8167 -52.3167 90° East 550 633 43,000  Level Gander Center
Mon 09:33:11 PM 44.8333 -52.2667 65° Northeast 550 633 43,000  Level Moncton Center
Mon 09:34:11 PM 44.8333 -52.0667 90° East 550 633 43,000  Level Moncton Center
Mon 09:34:40 PM 44.8500 -51.9667 77° East 540 621 43,000  Level Gander Center
Mon 09:35:40 PM 44.8500 -51.7500 90° East 540 621 43,000  Level Gander Center
Mon 09:35:56 PM 44.8667 -51.7000 65° Northeast 540 621 43,000  Level Gander Center
Mon 09:36:11 PM 44.8667 -51.6167 90° East 540 621 43,000  Level Moncton Center
Mon 09:36:40 PM 44.8833 -51.5333 74° East 540 621 43,000  Level Gander Center
Mon 09:37:40 PM 44.8833 -51.3333 90° East 530 610 43,000  Level Gander Center
Mon 09:38:40 PM 44.9167 -51.1167 78° East 550 633 43,000  Level Gander Center
Mon 09:39:40 PM 44.9333 -50.9000 84° East 540 621 43,000  Level Gander Center
Mon 09:40:40 PM 44.9500 -50.6833 84° East 540 621 43,000  Level Gander Center
Mon 09:41:40 PM 44.9500 -50.4667 90° East 540 621 43,000  Level Gander Center
Mon 09:42:40 PM 44.9667 -50.2833 83° East 540 621 43,000  Level Gander Center
Mon 09:43:40 PM 44.9833 -50.0500 84° East 550 633 43,000  Level Gander Center
Mon 09:44:00 PM 45.0000 -50.0000 70° East 509 586 43,000  Level ETMS Enhanced Traffic Management System
Mon 09:44:40 PM 45.0000 -49.8500 70° East 540 621 43,000  Level Gander Center
Mon 09:45:40 PM 45.0500 -49.6500 70° East 530 610 43,000  Level Gander Center
Mon 09:46:40 PM 45.1000 -49.4667 69° East 530 610 43,000  Level Gander Center
Mon 09:47:40 PM 45.1500 -49.2500 72° East 540 621 43,000  Level Gander Center
Mon 09:48:40 PM 45.2000 -49.0333 72° East 540 621 43,000  Level Gander Center
Mon 09:48:56 PM 45.2167 -49.0167 35° Northeast 540 621 43,000  Level Gander Center
Mon 09:49:40 PM 45.2500 -48.8333 75° East 540 621 43,000  Level Gander Center
Mon 09:50:40 PM 45.3000 -48.6333 70° East 540 621 43,000  Level Gander Center
Mon 09:50:56 PM 45.3000 -48.6167 90° East 530 610 43,000  Level Gander Center
Mon 09:51:56 PM 45.3500 -48.4167 70° East 520 598 43,000  Level Gander Center
Mon 09:52:56 PM 45.3833 -48.2000 78° East 530 610 43,000  Level Gander Center
Mon 09:53:56 PM 45.4500 -48.0000 65° Northeast 540 621 43,000  Level Gander Center
Mon 09:54:56 PM 45.5000 -47.8000 70° East 530 610 43,000  Level Gander Center
Mon 09:55:56 PM 45.5333 -47.6167 75° East 530 610 43,000  Level Gander Center
Mon 09:56:40 PM 45.5667 -47.4667 72° East 540 621 43,000  Level Gander Center
Mon 09:58:00 PM 45.6126 -47.2664 72° East  Level FlightAware Approximate
Mon 10:05:00 PM 45.9050 -45.9440 72° East  Level FlightAware Approximate
Mon 10:06:00 PM 45.9455 -45.7540 73° East  Level FlightAware Approximate
Mon 10:07:00 PM 45.9857 -45.5636 73° East  Level FlightAware Approximate
Mon 10:08:00 PM 46.0256 -45.3731 73° East  Level FlightAware Approximate
Mon 10:09:00 PM 46.0652 -45.1822 73° East  Level FlightAware Approximate
Mon 10:10:00 PM 46.1045 -44.9911 73° East  Level FlightAware Approximate
Mon 10:11:00 PM 46.1434 -44.7996 74° East  Level FlightAware Approximate
Mon 10:12:00 PM 46.1820 -44.6080 74° East  Level FlightAware Approximate
Mon 10:13:00 PM 46.2203 -44.4160 74° East  Level FlightAware Approximate
Mon 10:14:00 PM 46.2583 -44.2238 74° East  Level FlightAware Approximate
Mon 10:15:00 PM 46.2960 -44.0313 74° East  Level FlightAware Approximate
Mon 10:16:00 PM 46.3333 -43.8386 74° East  Level FlightAware Approximate
Mon 10:17:00 PM 46.3703 -43.6456 74° East  Level FlightAware Approximate
Mon 10:18:00 PM 46.4070 -43.4523 75° East  Level FlightAware Approximate
Mon 10:19:00 PM 46.4433 -43.2588 75° East  Level FlightAware Approximate
Mon 10:20:00 PM 46.4794 -43.0650 75° East  Level FlightAware Approximate
Mon 10:21:00 PM 46.5150 -42.8710 75° East  Level FlightAware Approximate
Mon 10:22:00 PM 46.5504 -42.6767 75° East  Level FlightAware Approximate
Mon 10:23:00 PM 46.5855 -42.4822 75° East  Level FlightAware Approximate
Mon 10:24:00 PM 46.6202 -42.2874 75° East  Level FlightAware Approximate
Mon 10:25:00 PM 46.6545 -42.0923 76° East  Level FlightAware Approximate
Mon 10:26:00 PM 46.6886 -41.8970 76° East  Level FlightAware Approximate
Mon 10:27:00 PM 46.7223 -41.7015 76° East  Level FlightAware Approximate
Mon 10:28:00 PM 46.7557 -41.5057 76° East  Level FlightAware Approximate
Mon 10:29:00 PM 46.7887 -41.3097 76° East  Level FlightAware Approximate
Mon 10:30:00 PM 46.8215 -41.1134 76° East  Level FlightAware Approximate
Mon 10:31:00 PM 46.8538 -40.9170 76° East  Level FlightAware Approximate
Mon 10:32:00 PM 46.8859 -40.7202 77° East  Level FlightAware Approximate
Mon 10:33:00 PM 46.9176 -40.5233 77° East  Level FlightAware Approximate
Mon 10:34:00 PM 46.9490 -40.3261 77° East  Level FlightAware Approximate
Mon 10:34:00 PM 47.0000 -40.0000 70° East 523 602 43,000  Level ETMS Enhanced Traffic Management System
Mon 10:35:00 PM 46.9800 -40.1286 77° East  Level FlightAware Approximate
Mon 10:36:00 PM 47.0160 -39.9330 71° East  Level FlightAware Approximate
Mon 10:37:00 PM 47.0616 -39.7414 71° East  Level FlightAware Approximate
Mon 10:38:00 PM 47.1068 -39.5495 71° East  Level FlightAware Approximate
Mon 10:39:00 PM 47.1516 -39.3573 71° East  Level FlightAware Approximate
Mon 10:40:00 PM 47.3926 -38.3889 71° East 523 602 43,000  Level FlightAware Transoceanic
Mon 10:41:00 PM 47.4401 -38.1859 71° East 523 602 43,000  Level FlightAware Transoceanic
Mon 10:42:00 PM 47.4872 -37.9825 71° East 523 602 43,000  Level FlightAware Transoceanic
Mon 10:43:00 PM 47.5340 -37.7787 71° East 523 602 43,000  Level FlightAware Transoceanic
Mon 10:44:00 PM 47.5804 -37.5745 71° East 523 602 43,000  Level FlightAware Transoceanic
Mon 10:45:00 PM 47.6264 -37.3700 72° East 523 602 43,000  Level FlightAware Transoceanic
Mon 10:46:00 PM 47.6721 -37.1652 72° East 523 602 43,000  Level FlightAware Transoceanic
Mon 10:47:00 PM 47.7174 -36.9599 72° East 523 602 43,000  Level FlightAware Transoceanic
Mon 10:48:00 PM 47.7624 -36.7544 72° East 523 602 43,000  Level FlightAware Transoceanic
Mon 10:49:00 PM 47.8069 -36.5484 72° East 523 602 43,000  Level FlightAware Transoceanic
Mon 10:50:00 PM 47.8511 -36.3422 72° East 523 602 43,000  Level FlightAware Transoceanic
Mon 10:51:00 PM 47.8950 -36.1355 73° East 523 602 43,000  Level FlightAware Transoceanic
Mon 10:52:00 PM 47.9384 -35.9286 73° East 523 602 43,000  Level FlightAware Transoceanic
Mon 10:53:00 PM 47.9815 -35.7212 73° East 523 602 43,000  Level FlightAware Transoceanic
Mon 10:54:00 PM 48.0243 -35.5135 73° East 523 602 43,000  Level FlightAware Transoceanic
Mon 10:55:00 PM 48.0666 -35.3055 73° East 523 602 43,000  Level FlightAware Transoceanic
Mon 10:56:00 PM 48.1086 -35.0972 73° East 523 602 43,000  Level FlightAware Transoceanic
Mon 10:57:00 PM 48.1502 -34.8885 73° East 523 602 43,000  Level FlightAware Transoceanic
Mon 10:58:00 PM 48.1914 -34.6795 74° East 523 602 43,000  Level FlightAware Transoceanic
Mon 10:59:00 PM 48.2322 -34.4701 74° East 523 602 43,000  Level FlightAware Transoceanic
Mon 11:00:00 PM 48.2726 -34.2604 74° East 523 602 43,000  Level FlightAware Transoceanic
Mon 11:01:00 PM 48.3127 -34.0504 74° East 523 602 43,000  Level FlightAware Transoceanic
Mon 11:02:00 PM 48.3524 -33.8400 74° East 523 602 43,000  Level FlightAware Transoceanic
Mon 11:03:00 PM 48.3917 -33.6293 74° East 523 602 43,000  Level FlightAware Transoceanic
Mon 11:04:00 PM 48.4306 -33.4183 75° East 523 602 43,000  Level FlightAware Transoceanic
Mon 11:05:00 PM 48.4692 -33.2070 75° East 523 602 43,000  Level FlightAware Transoceanic
Mon 11:06:00 PM 48.5073 -32.9953 75° East 523 602 43,000  Level FlightAware Transoceanic
Mon 11:07:00 PM 48.5450 -32.7833 75° East 523 602 43,000  Level FlightAware Transoceanic
Mon 11:08:00 PM 48.5824 -32.5711 75° East 523 602 43,000  Level FlightAware Transoceanic
Mon 11:09:00 PM 48.6194 -32.3585 75° East 523 602 43,000  Level FlightAware Transoceanic
Mon 11:10:00 PM 48.6560 -32.1455 76° East 523 602 43,000  Level FlightAware Transoceanic
Mon 11:11:00 PM 48.6922 -31.9323 76° East 523 602 43,000  Level FlightAware Transoceanic
Mon 11:12:00 PM 48.7280 -31.7188 76° East 523 602 43,000  Level FlightAware Transoceanic
Mon 11:13:00 PM 48.7634 -31.5050 76° East 523 602 43,000  Level FlightAware Transoceanic
Mon 11:14:00 PM 48.7984 -31.2909 76° East 523 602 43,000  Level FlightAware Transoceanic
Mon 11:15:00 PM 48.8330 -31.0765 76° East 523 602 43,000  Level FlightAware Transoceanic
Mon 11:16:00 PM 48.8672 -30.8617 76° East 523 602 43,000  Level FlightAware Transoceanic
Mon 11:17:00 PM 48.9010 -30.6467 77° East 523 602 43,000  Level FlightAware Transoceanic
Mon 11:18:00 PM 48.9344 -30.4314 77° East 523 602 43,000  Level FlightAware Transoceanic
Mon 11:19:00 PM 48.9674 -30.2159 77° East 523 602 43,000  Level FlightAware Transoceanic
Mon 11:20:00 PM 48.9984 -30.0106 77° East  Level FlightAware Approximate
Mon 11:21:00 PM 49.0291 -29.8050 77° East  Level FlightAware Approximate
Mon 11:21:00 PM 49.0000 -30.0000 77° East 537 618 43,000  Level ETMS Enhanced Traffic Management System
Mon 11:22:00 PM 49.0262 -29.8152 78° East  Level FlightAware Approximate
Mon 11:23:00 PM 49.0552 -29.6089 78° East  Level FlightAware Approximate
Mon 11:24:00 PM 49.0837 -29.4024 78° East  Level FlightAware Approximate
Mon 11:25:00 PM 49.1119 -29.1957 78° East  Level FlightAware Approximate
Mon 11:26:00 PM 49.1397 -28.9887 78° East  Level FlightAware Approximate
Mon 11:27:00 PM 49.2163 -28.4389 79° East 537 618 43,000  Level FlightAware Transoceanic
Mon 11:28:00 PM 49.2454 -28.2148 79° East 537 618 43,000  Level FlightAware Transoceanic
Mon 11:29:00 PM 49.2742 -27.9904 79° East 537 618 43,000  Level FlightAware Transoceanic
Mon 11:30:00 PM 49.3025 -27.7658 79° East 537 618 43,000  Level FlightAware Transoceanic
Mon 11:31:00 PM 49.3303 -27.5409 79° East 537 618 43,000  Level FlightAware Transoceanic
Mon 11:32:00 PM 49.3578 -27.3157 79° East 537 618 43,000  Level FlightAware Transoceanic
Mon 11:33:00 PM 49.3848 -27.0903 80° East 537 618 43,000  Level FlightAware Transoceanic
Mon 11:34:00 PM 49.4113 -26.8647 80° East 537 618 43,000  Level FlightAware Transoceanic
Mon 11:35:00 PM 49.4374 -26.6388 80° East 537 618 43,000  Level FlightAware Transoceanic
Mon 11:36:00 PM 49.4631 -26.4127 80° East 537 618 43,000  Level FlightAware Transoceanic
Mon 11:37:00 PM 49.4883 -26.1864 80° East 537 618 43,000  Level FlightAware Transoceanic
Mon 11:38:00 PM 49.5131 -25.9598 81° East 537 618 43,000  Level FlightAware Transoceanic
Mon 11:39:00 PM 49.5375 -25.7330 81° East 537 618 43,000  Level FlightAware Transoceanic
Mon 11:40:00 PM 49.5614 -25.5059 81° East 537 618 43,000  Level FlightAware Transoceanic
Mon 11:41:00 PM 49.5848 -25.2787 81° East 537 618 43,000  Level FlightAware Transoceanic
Mon 11:42:00 PM 49.6078 -25.0512 81° East 537 618 43,000  Level FlightAware Transoceanic
Mon 11:43:00 PM 49.6304 -24.8235 81° East 537 618 43,000  Level FlightAware Transoceanic
Mon 11:44:00 PM 49.6525 -24.5956 82° East 537 618 43,000  Level FlightAware Transoceanic
Mon 11:45:00 PM 49.6742 -24.3675 82° East 537 618 43,000  Level FlightAware Transoceanic
Mon 11:46:00 PM 49.6954 -24.1392 82° East 537 618 43,000  Level FlightAware Transoceanic
Mon 11:47:00 PM 49.7162 -23.9107 82° East 537 618 43,000  Level FlightAware Transoceanic
Mon 11:48:00 PM 49.7365 -23.6821 82° East 537 618 43,000  Level FlightAware Transoceanic
Mon 11:49:00 PM 49.7564 -23.4532 82° East 537 618 43,000  Level FlightAware Transoceanic
Mon 11:50:00 PM 49.7758 -23.2241 83° East 537 618 43,000  Level FlightAware Transoceanic
Mon 11:51:00 PM 49.7948 -22.9949 83° East 537 618 43,000  Level FlightAware Transoceanic
Mon 11:52:00 PM 49.8133 -22.7654 83° East 537 618 43,000  Level FlightAware Transoceanic
Mon 11:53:00 PM 49.8314 -22.5359 83° East 537 618 43,000  Level FlightAware Transoceanic
Mon 11:54:00 PM 49.8490 -22.3061 83° East 537 618 43,000  Level FlightAware Transoceanic
Mon 11:55:00 PM 49.8661 -22.0762 83° East 537 618 43,000  Level FlightAware Transoceanic
Mon 11:56:00 PM 49.8828 -21.8461 84° East 537 618 43,000  Level FlightAware Transoceanic
Mon 11:57:00 PM 49.8991 -21.6158 84° East 537 618 43,000  Level FlightAware Transoceanic
Mon 11:58:00 PM 49.9149 -21.3854 84° East 537 618 43,000  Level FlightAware Transoceanic
Mon 11:59:00 PM 49.9302 -21.1549 84° East 537 618 43,000  Level FlightAware Transoceanic
Tue 12:00:00 AM 49.9451 -20.9242 84° East 537 618 43,000  Level FlightAware Transoceanic
Tue 12:01:00 AM 49.9595 -20.6933 85° East 537 618 43,000  Level FlightAware Transoceanic
Tue 12:02:00 AM 49.9735 -20.4623 85° East 537 618 43,000  Level FlightAware Transoceanic
Tue 12:03:00 AM 49.9870 -20.2312 85° East 537 618 43,000 38 Level FlightAware Transoceanic
Tue 12:04:00 AM 49.9991 -20.0170 85° East  Level FlightAware Approximate
Tue 12:05:00 AM 50.0107 -19.8026 85° East  Level FlightAware Approximate
Tue 12:06:00 AM 50.0092 -19.8195 85° East  Level FlightAware Approximate
Tue 12:07:00 AM 50.0197 -19.6050 86° East  Level FlightAware Approximate
Tue 12:08:00 AM 50.0299 -19.3904 86° East  Level FlightAware Approximate
Tue 12:09:00 AM 50.0396 -19.1757 86° East  Level FlightAware Approximate
Tue 12:10:00 AM 50.0490 -18.9609 86° East  Level FlightAware Approximate
Tue 12:11:00 AM 50.0579 -18.7460 86° East  Level FlightAware Approximate
Tue 12:12:00 AM 50.0665 -18.5310 86° East  Level FlightAware Approximate
Tue 12:13:00 AM 50.0746 -18.3160 87° East  Level FlightAware Approximate
Tue 12:14:00 AM 50.0824 -18.1009 87° East  Level FlightAware Approximate
Tue 12:15:00 AM 50.0898 -17.8857 87° East  Level FlightAware Approximate
Tue 12:16:00 AM 50.0967 -17.6705 87° East  Level FlightAware Approximate
Tue 12:17:00 AM 50.1033 -17.4552 87° East  Level FlightAware Approximate
Tue 12:18:00 AM 50.1095 -17.2398 87° East  Level FlightAware Approximate
Tue 12:19:00 AM 50.1152 -17.0244 88° East  Level FlightAware Approximate
Tue 12:20:00 AM 50.1206 -16.8089 88° East  Level FlightAware Approximate
Tue 12:21:00 AM 50.1256 -16.5934 88° East  Level FlightAware Approximate
Tue 12:22:00 AM 50.1302 -16.3779 88° East  Level FlightAware Approximate
Tue 12:23:00 AM 50.1344 -16.1623 88° East  Level FlightAware Approximate
Tue 12:24:00 AM 50.1381 -15.9466 88° East  Level FlightAware Approximate
Tue 12:25:00 AM 50.1415 -15.7310 89° East  Level FlightAware Approximate
Tue 12:26:00 AM 50.1445 -15.5153 89° East  Level FlightAware Approximate
Tue 12:27:00 AM 50.1471 -15.2996 89° East  Level FlightAware Approximate
Tue 12:28:00 AM 50.1493 -15.0838 89° East  Level FlightAware Approximate
Tue 12:29:00 AM 50.1511 -14.8681 89° East  Level FlightAware Approximate
Tue 12:30:00 AM 50.1525 -14.6523 89° East  Level FlightAware Approximate
Tue 12:31:00 AM 50.1535 -14.4366 89° East  Level FlightAware Approximate
Tue 12:32:00 AM 50.1542 -14.2208 90° East  Level FlightAware Approximate
Tue 12:33:00 AM 50.1544 -14.0050 90° East  Level FlightAware Approximate
Tue 12:34:00 AM 50.1542 -13.7892 90° East  Level FlightAware Approximate
Tue 12:35:00 AM 50.1536 -13.5734 90° East  Level FlightAware Approximate
Tue 12:36:00 AM 50.1527 -13.3576 90° East  Level FlightAware Approximate
Tue 12:37:00 AM 50.1513 -13.1418 90° East  Level FlightAware Approximate
Tue 12:38:00 AM 50.1495 -12.9261 91° East  Level FlightAware Approximate
Tue 12:39:00 AM 50.1474 -12.7104 91° East  Level FlightAware Approximate
Tue 12:40:00 AM 50.1448 -12.4946 91° East  Level FlightAware Approximate
Tue 12:41:00 AM 50.1418 -12.2789 91° East  Level FlightAware Approximate
Tue 12:42:00 AM 50.1385 -12.0633 91° East  Level FlightAware Approximate
Tue 12:43:00 AM 50.1347 -11.8476 91° East  Level FlightAware Approximate
Tue 12:44:00 AM 50.1305 -11.6321 92° East  Level FlightAware Approximate
Tue 12:45:00 AM 50.1259 -11.4165 92° East  Level FlightAware Approximate
Tue 12:46:00 AM 50.1210 -11.2010 92° East  Level FlightAware Approximate
Tue 12:47:00 AM 50.1156 -10.9855 92° East  Level FlightAware Approximate
Tue 12:48:00 AM 50.1099 -10.7701 92° East  Level FlightAware Approximate
Tue 12:49:00 AM 50.1037 -10.5548 92° East  Level FlightAware Approximate
Tue 12:50:00 AM 50.0971 -10.3395 93° East  Level FlightAware Approximate
Tue 12:51:00 AM 50.0902 -10.1242 93° East  Level FlightAware Approximate
Tue 12:52:00 AM 50.0828 -9.9090 93° East  Level FlightAware Approximate
Tue 12:53:00 AM 50.0751 -9.6939 93° East  Level FlightAware Approximate
Tue 12:54:00 AM 50.0669 -9.4789 93° East  Level FlightAware Approximate
Tue 12:54:26 AM 50.3534 -8.9756 93° East 480 552 45,000  Level FlightAware UK
Tue 12:54:56 AM 50.3382 -8.8694 103° East 480 552 45,000  Level FlightAware UK
Tue 12:55:26 AM 50.3232 -8.7627 102° East 486 559 45,000  Level FlightAware UK
Tue 12:55:56 AM 50.3078 -8.6559 103° East 486 559 45,000  Level FlightAware UK
Tue 12:56:26 AM 50.2922 -8.5492 103° East 482 555 45,000  Level FlightAware UK
Tue 12:56:56 AM 50.2765 -8.4428 103° East 482 555 45,000  Level FlightAware UK
Tue 12:57:26 AM 50.2607 -8.3365 103° East 482 555 45,000  Level FlightAware UK
Tue 12:57:56 AM 50.2451 -8.2301 103° East 486 559 45,000  Level FlightAware UK
Tue 12:58:26 AM 50.2294 -8.1232 103° East 486 559 45,000  Level FlightAware UK
Tue 12:58:56 AM 50.2132 -8.0157 103° East 484 557 45,000  Level FlightAware UK
Tue 12:59:26 AM 50.1969 -7.9093 103° East 480 552 45,000  Level FlightAware UK
Tue 12:59:56 AM 50.1805 -7.8031 103° East 482 555 45,000  Level FlightAware UK
Tue 01:00:26 AM 50.1645 -7.6967 103° East 484 557 45,000  Level FlightAware UK
Tue 01:00:56 AM 50.1480 -7.5900 104° East 484 557 45,000  Level FlightAware UK
Tue 01:01:27 AM 50.1313 -7.4825 104° East 484 557 45,000  Level FlightAware UK
Tue 01:01:57 AM 50.1145 -7.3757 104° East 486 559 45,000  Level FlightAware UK
Tue 01:02:27 AM 50.0976 -7.2692 104° East 484 557 45,000  Level FlightAware UK
Tue 01:02:57 AM 50.0808 -7.1634 104° East 484 557 45,000  Level FlightAware UK
Tue 01:03:27 AM 50.0637 -7.0588 104° East 480 552 45,000  Level FlightAware UK
Tue 01:03:57 AM 50.0469 -6.9550 104° East 480 552 45,000  Level FlightAware UK
Tue 01:04:27 AM 50.0304 -6.8511 104° East 480 552 45,000  Level FlightAware UK
Tue 01:04:57 AM 50.0137 -6.7474 104° East 482 555 45,000  Level FlightAware UK
Tue 01:05:27 AM 49.9969 -6.6433 104° East 482 555 45,000  Level FlightAware UK
Tue 01:05:57 AM 49.9797 -6.5391 104° East 482 555 45,000  Level FlightAware UK
Tue 01:06:27 AM 49.9622 -6.4346 105° East 484 557 45,000  Level FlightAware UK
Tue 01:06:57 AM 49.9450 -6.3290 104° East 480 552 45,000  Level FlightAware UK
Tue 01:07:27 AM 49.9275 -6.2243 104° East 482 555 45,000  Level FlightAware UK
Tue 01:07:57 AM 49.9099 -6.1197 105° East 484 557 45,000  Level FlightAware UK
Tue 01:08:27 AM 49.8921 -6.0151 105° East 482 555 45,000  Level FlightAware UK
Tue 01:08:57 AM 49.8741 -5.9108 105° East 480 552 45,000  Level FlightAware UK
Tue 01:09:27 AM 49.8561 -5.8066 105° East 480 552 45,000  Level FlightAware UK
Tue 01:09:57 AM 49.8381 -5.7013 105° East 482 555 45,000  Level FlightAware UK
Tue 01:10:27 AM 49.8199 -5.5965 105° East 482 555 45,000  Level FlightAware UK
Tue 01:10:57 AM 49.8013 -5.4911 105° East 482 555 45,000  Level FlightAware UK
Tue 01:11:33 AM 49.7792 -5.3659 105° East 484 557 45,000  Level FlightAware UK
Tue 01:12:03 AM 49.7607 -5.2611 105° East 482 555 45,000  Level FlightAware UK
Tue 01:12:33 AM 49.7450 -5.1556 103° East 480 552 45,000  Level FlightAware UK
Tue 01:13:09 AM 49.7317 -5.0285 99° East 478 550 45,000  Level FlightAware UK
Tue 01:13:39 AM 49.7194 -4.9228 100° East 476 548 45,000  Level FlightAware UK
Tue 01:14:09 AM 49.7070 -4.8158 100° East 478 550 45,000  Level FlightAware UK
Tue 01:14:39 AM 49.6944 -4.7083 100° East 482 555 45,000  Level FlightAware UK
Tue 01:15:09 AM 49.6817 -4.6008 100° East 484 557 45,000  Level FlightAware UK
Tue 01:15:39 AM 49.6688 -4.4929 100° East 482 555 45,000  Level FlightAware UK
Tue 01:16:10 AM 49.6558 -4.3848 100° East 480 552 45,000  Level FlightAware UK
Tue 01:16:40 AM 49.6429 -4.2778 101° East 480 552 45,000  Level FlightAware UK
Tue 01:17:10 AM 49.6299 -4.1708 101° East 480 552 45,000  Level FlightAware UK
Tue 01:17:40 AM 49.6165 -4.0629 101° East 484 557 45,000  Level FlightAware UK
Tue 01:18:16 AM 49.6005 -3.9350 101° East 484 557 45,000  Level FlightAware UK
Tue 01:18:46 AM 49.5870 -3.8275 101° East 478 550 45,000  Level FlightAware UK
Tue 01:19:16 AM 49.5735 -3.7213 101° East 478 550 45,000  Level FlightAware UK
Tue 01:19:46 AM 49.5602 -3.6153 101° East 482 555 45,000  Level FlightAware UK
Tue 01:20:16 AM 49.5466 -3.5093 101° East 482 555 45,000  Level FlightAware UK
Tue 01:20:46 AM 49.5328 -3.4032 101° East 478 550 45,000  Level FlightAware UK
Tue 01:21:16 AM 49.5188 -3.2963 101° East 478 550 45,000  Level FlightAware UK
Tue 01:21:52 AM 49.5020 -3.1687 101° East 480 552 45,000  Level FlightAware UK
Tue 01:22:22 AM 49.4877 -3.0617 102° East 482 555 45,000  Level FlightAware UK
Tue 01:22:52 AM 49.4732 -2.9537 102° East 482 555 45,000  Level FlightAware UK
Tue 01:23:22 AM 49.4588 -2.8466 102° East 480 552 45,000  Level FlightAware UK
Tue 01:23:52 AM 49.4442 -2.7393 102° East 478 550 45,000  Level FlightAware UK
Tue 01:24:28 AM 49.4270 -2.6126 102° East 482 555 45,000  Level FlightAware UK
Tue 01:24:58 AM 49.4123 -2.5062 102° East 480 552 45,000  Level FlightAware UK
Tue 01:25:28 AM 49.3974 -2.3992 102° East 482 555 45,000  Level FlightAware UK
Tue 01:25:58 AM 49.3826 -2.2930 102° East 480 552 45,000  Level FlightAware UK
Tue 01:26:28 AM 49.3675 -2.1862 102° East 480 552 45,000  Level FlightAware UK
Tue 01:26:59 AM 49.3523 -2.0787 102° East 480 552 45,000  Level FlightAware UK
Tue 01:27:35 AM 49.3338 -1.9504 102° East 482 555 45,000  Level FlightAware UK
Tue 01:28:05 AM 49.3187 -1.8445 102° East 480 552 45,000  Level FlightAware UK
Tue 01:28:35 AM 49.3031 -1.7387 103° East 480 552 45,000  Level FlightAware UK
Tue 01:29:05 AM 49.2879 -1.6334 102° East 478 550 45,000  Level FlightAware UK
Tue 01:29:35 AM 49.2723 -1.5276 103° East 480 552 45,000  Level FlightAware UK
Tue 01:30:05 AM 49.2568 -1.4224 103° East 482 555 45,000  Level FlightAware UK
Tue 01:30:41 AM 49.2378 -1.2960 103° East 480 552 45,000  Level FlightAware UK
Tue 01:31:11 AM 49.2219 -1.1892 103° East 478 550 45,000  Level FlightAware UK
Tue 01:31:41 AM 49.2059 -1.0827 103° East 482 555 45,000  Level FlightAware UK
Tue 01:32:11 AM 49.1893 -0.9754 103° East 486 559 45,000  Level FlightAware UK
Tue 01:32:41 AM 49.1727 -0.8677 103° East 484 557 45,000  Level FlightAware UK
Tue 01:33:11 AM 49.1561 -0.7604 103° East 482 555 45,000  Level FlightAware UK
Tue 01:33:47 AM 49.1365 -0.6330 103° East 482 555 45,000  Level FlightAware UK
Tue 01:34:17 AM 49.1198 -0.5272 103° East 484 557 45,000  Level FlightAware UK
Tue 01:34:47 AM 49.1029 -0.4210 104° East 482 555 45,000  Level FlightAware UK
Tue 01:35:17 AM 49.0862 -0.3159 104° East 482 555 45,000  Level FlightAware UK
Tue 01:35:47 AM 49.0694 -0.2107 104° East 482 555 45,000  Level FlightAware UK
Tue 01:36:17 AM 49.0529 -0.1069 104° East 482 555 45,000  Level FlightAware UK
Tue 01:36:47 AM 49.0361 -0.0036 104° East 480 552 45,000  Level FlightAware UK
Tue 01:37:18 AM 49.0191 0.1006 104° East 482 555 45,000  Level FlightAware UK
Tue 01:37:48 AM 49.0021 0.2038 104° East 482 555 45,000  Level FlightAware UK
Tue 01:38:18 AM 48.9851 0.3071 104° East 480 552 45,000  Level FlightAware UK
Tue 01:38:48 AM 48.9680 0.4111 104° East 486 559 45,000  Level FlightAware UK
Tue 01:39:24 AM 48.9472 0.5347 104° East 482 555 45,000  Level FlightAware UK
Tue 01:39:54 AM 48.9298 0.6379 104° East 480 552 45,000  Level FlightAware UK
Tue 01:40:36 AM 48.9056 0.7808 104° East 482 555 45,000  Level FlightAware UK
Tue 01:41:06 AM 48.8882 0.8835 104° East 480 552 45,000  Level FlightAware UK
Tue 01:41:36 AM 48.8706 0.9854 105° East 480 552 45,000  Level FlightAware UK
Tue 01:42:06 AM 48.8530 1.0870 105° East 478 550 45,000  Level FlightAware UK
Tue 01:42:36 AM 48.8353 1.1888 105° East 480 552 45,000  Level FlightAware UK
Tue 01:43:06 AM 48.8174 1.2908 105° East 482 555 45,000  Level FlightAware UK
Tue 01:43:36 AM 48.7995 1.3934 105° East 484 557 45,000  Level FlightAware UK
Tue 01:44:06 AM 48.7812 1.4968 105° East 484 557 45,000  Level FlightAware UK
Tue 01:44:48 AM 48.7559 1.6397 105° East 478 550 45,000  Level FlightAware UK
Tue 01:45:18 AM 48.7379 1.7401 105° East 476 548 45,000  Level FlightAware UK
Tue 01:45:54 AM 48.7162 1.8612 105° East 480 552 45,000  Level FlightAware UK
Tue 01:46:25 AM 48.6975 1.9635 105° East 480 552 45,000  Level FlightAware UK
Tue 01:46:55 AM 48.6790 2.0655 105° East 482 555 45,000 -545 Level FlightAware UK
Tue 01:47:31 AM 48.6567 2.1881 105° East 476 548 44,400 -1,000 Descending FlightAware UK
Tue 01:49:00 AM 48.6033 2.4877 105° East  Level FlightAware Approximate
Tue 01:56:00 AM 48.3408 3.8928 105° East  Level FlightAware Approximate
Tue 01:57:00 AM 48.3017 4.0916 107° East  Level FlightAware Approximate
Tue 01:58:00 AM 48.2620 4.2906 107° East  Level FlightAware Approximate
Tue 01:59:00 AM 48.2228 4.4897 106° East  Level FlightAware Approximate
Tue 02:00:00 AM 48.1853 4.6894 106° East  Level FlightAware Approximate
Tue 02:01:00 AM 48.1427 4.8865 107° East  Level FlightAware Approximate
Tue 02:02:00 AM 48.1030 5.0849 107° East  Level FlightAware Approximate
Tue 02:03:00 AM 48.0635 5.2832 107° East  Level FlightAware Approximate
Tue 02:04:00 AM 48.0238 5.4813 107° East  Level FlightAware Approximate
Tue 02:05:00 AM 47.9830 5.6788 107° East  Level FlightAware Approximate
Tue 02:06:00 AM 47.9416 5.8758 107° East  Level FlightAware Approximate
Tue 02:07:00 AM 47.9000 6.0725 107° East  Level FlightAware Approximate
Tue 02:08:00 AM 47.8580 6.2689 108° East  Level FlightAware Approximate
Tue 02:09:00 AM 47.8170 6.4656 106° East  Level FlightAware Approximate
Tue 02:10:00 AM 47.7769 6.6626 108° East  Level FlightAware Approximate
Tue 02:11:00 AM 47.7335 6.8579 108° East  Level FlightAware Approximate
Tue 02:12:00 AM 47.6910 7.0534 108° East  Level FlightAware Approximate
Tue 02:13:00 AM 47.6440 7.2462 113° Southeast  Level FlightAware Approximate
Tue 02:14:00 AM 47.5947 7.4373 102° East  Level FlightAware Approximate
Tue 02:15:00 AM 47.5833 7.5167 102° East  Level FlightAware Approximate
Tue 02:16:00 AM 47.5896 7.5299 102° East  Level Estimated
Tue 02:17:00 AM 47.5896 7.5299 102° East  Level Estimated
Tue 02:18:00 AM 47.5896 7.5299 102° East  Level Estimated
Tue 02:19:00 AM 47.5896 7.5299 102° East  Level Estimated
Tue 02:20:00 AM 47.5896 7.5299 102° East  Level Estimated
Tue 02:21:00 AM 47.5896 7.5299 102° East  Level Estimated
Tue 02:22:00 AM 47.5896 7.5299 102° East  Level Estimated
Tue 02:23:00 AM 47.5896 7.5299 102° East  Level Estimated
Tue 02:24:00 AM 47.5896 7.5299 102° East  Level Estimated
Tue 02:25:00 AM 47.5896 7.5299 102° East  Level Estimated
Tue 02:26:00 AM 47.5896 7.5299 102° East  Level Estimated
Tue 02:27:00 AM 47.5896 7.5299 102° East  Level Estimated
Tue 02:28:00 AM 47.5896 7.5299 102° East  Level Estimated
Tue 02:29:00 AM 47.5896 7.5299 102° East  Level Estimated
Tue 02:30:00 AM 47.5896 7.5299 102° East  Level Estimated
Tue 02:31:00 AM 47.5896 7.5299 102° East  Level Estimated
Tue 02:32:00 AM 47.5896 7.5299 102° East  Level Estimated
Tue 02:33:00 AM 47.5896 7.5299 102° East  Level Estimated
Tue 02:34:00 AM 47.5896 7.5299 102° East  Level Estimated
Tue 02:35:00 AM 47.5896 7.5299 102° East  Level Estimated
Tue 02:36:00 AM 47.5896 7.5299 102° East  Level Estimated
Tue 02:37:00 AM 47.5896 7.5299 102° East  Level Estimated
Tue 02:38:00 AM 47.5896 7.5299 102° East  Level Estimated
Tue 02:39:00 AM 47.5896 7.5299 102° East  Level Estimated
Tue 02:40:00 AM 47.5896 7.5299 102° East  Level Estimated
Tue 02:41:00 AM 47.5896 7.5299 102° East  Level Estimated
Tue 02:42:00 AM 47.5896 7.5299 102° East  Level Estimated
Tue 02:43:00 AM 47.5896 7.5299 102° East  Level Estimated
Tue 02:44:00 AM 47.5896 7.5299 102° East  Level Estimated

Login

Don't have an account? Register now (free) for customized features, flight alerts, and more!